sensor_id;sensor_type;location;lat;lon;timestamp;P1;durP1;ratioP1;P2;durP2;ratioP2
11986;SDS011;6053;51.382;6.768;2024-02-16T00:00:09;1.30;;;1.20;;
11986;SDS011;6053;51.382;6.768;2024-02-16T00:02:39;1.50;;;1.00;;
11986;SDS011;6053;51.382;6.768;2024-02-16T00:05:12;1.92;;;1.35;;
11986;SDS011;6053;51.382;6.768;2024-02-16T00:07:43;0.97;;;0.97;;
11986;SDS011;6053;51.382;6.768;2024-02-16T00:10:17;1.30;;;1.20;;
11986;SDS011;6053;51.382;6.768;2024-02-16T00:12:47;1.58;;;1.30;;
11986;SDS011;6053;51.382;6.768;2024-02-16T00:15:22;1.52;;;1.20;;
11986;SDS011;6053;51.382;6.768;2024-02-16T00:17:51;1.58;;;1.48;;
11986;SDS011;6053;51.382;6.768;2024-02-16T00:20:28;1.07;;;1.07;;
11986;SDS011;6053;51.382;6.768;2024-02-16T00:23:01;1.17;;;1.07;;
11986;SDS011;6053;51.382;6.768;2024-02-16T00:25:30;3.80;;;1.10;;
11986;SDS011;6053;51.382;6.768;2024-02-16T00:27:58;1.47;;;1.37;;
11986;SDS011;6053;51.382;6.768;2024-02-16T00:30:36;1.60;;;1.43;;
11986;SDS011;6053;51.382;6.768;2024-02-16T00:33:05;1.48;;;1.33;;
11986;SDS011;6053;51.382;6.768;2024-02-16T00:35:36;1.58;;;1.40;;
11986;SDS011;6053;51.382;6.768;2024-02-16T00:38:11;1.30;;;1.30;;
11986;SDS011;6053;51.382;6.768;2024-02-16T00:40:39;1.02;;;1.02;;
11986;SDS011;6053;51.382;6.768;2024-02-16T00:43:10;1.10;;;1.10;;
11986;SDS011;6053;51.382;6.768;2024-02-16T00:45:42;2.45;;;1.25;;
11986;SDS011;6053;51.382;6.768;2024-02-16T00:48:11;1.50;;;1.40;;
11986;SDS011;6053;51.382;6.768;2024-02-16T00:50:46;1.20;;;1.20;;
11986;SDS011;6053;51.382;6.768;2024-02-16T00:53:17;1.50;;;1.40;;
11986;SDS011;6053;51.382;6.768;2024-02-16T00:55:48;1.92;;;1.40;;
11986;SDS011;6053;51.382;6.768;2024-02-16T00:58:16;1.35;;;1.25;;
11986;SDS011;6053;51.382;6.768;2024-02-16T01:00:54;1.85;;;1.35;;
11986;SDS011;6053;51.382;6.768;2024-02-16T01:03:32;1.80;;;1.30;;
11986;SDS011;6053;51.382;6.768;2024-02-16T01:06:00;1.27;;;1.20;;
11986;SDS011;6053;51.382;6.768;2024-02-16T01:08:29;1.30;;;1.20;;
11986;SDS011;6053;51.382;6.768;2024-02-16T01:10:57;1.25;;;1.20;;
11986;SDS011;6053;51.382;6.768;2024-02-16T01:13:26;1.08;;;1.08;;
11986;SDS011;6053;51.382;6.768;2024-02-16T01:16:02;1.20;;;1.10;;
11986;SDS011;6053;51.382;6.768;2024-02-16T01:18:31;2.55;;;1.30;;
11986;SDS011;6053;51.382;6.768;2024-02-16T01:21:06;1.03;;;0.93;;
11986;SDS011;6053;51.382;6.768;2024-02-16T01:23:35;1.70;;;1.30;;
11986;SDS011;6053;51.382;6.768;2024-02-16T01:26:06;1.83;;;1.23;;
11986;SDS011;6053;51.382;6.768;2024-02-16T01:28:37;1.00;;;1.00;;
11986;SDS011;6053;51.382;6.768;2024-02-16T01:31:06;1.27;;;1.20;;
11986;SDS011;6053;51.382;6.768;2024-02-16T01:33:39;1.17;;;1.10;;
11986;SDS011;6053;51.382;6.768;2024-02-16T01:36:07;1.55;;;1.38;;
11986;SDS011;6053;51.382;6.768;2024-02-16T01:38:37;1.42;;;1.33;;
11986;SDS011;6053;51.382;6.768;2024-02-16T01:41:11;1.48;;;1.40;;
11986;SDS011;6053;51.382;6.768;2024-02-16T01:43:53;1.15;;;1.10;;
11986;SDS011;6053;51.382;6.768;2024-02-16T01:46:26;1.27;;;1.27;;
11986;SDS011;6053;51.382;6.768;2024-02-16T01:48:55;1.30;;;1.17;;
11986;SDS011;6053;51.382;6.768;2024-02-16T01:51:23;1.20;;;1.20;;
11986;SDS011;6053;51.382;6.768;2024-02-16T01:53:53;1.20;;;1.10;;
11986;SDS011;6053;51.382;6.768;2024-02-16T01:56:22;1.45;;;1.35;;
11986;SDS011;6053;51.382;6.768;2024-02-16T01:58:56;1.30;;;1.20;;
11986;SDS011;6053;51.382;6.768;2024-02-16T02:01:27;2.03;;;1.30;;
11986;SDS011;6053;51.382;6.768;2024-02-16T02:03:59;1.40;;;1.30;;
11986;SDS011;6053;51.382;6.768;2024-02-16T02:06:31;1.50;;;1.10;;
11986;SDS011;6053;51.382;6.768;2024-02-16T02:08:59;1.73;;;1.48;;
11986;SDS011;6053;51.382;6.768;2024-02-16T02:11:28;1.50;;;1.30;;
11986;SDS011;6053;51.382;6.768;2024-02-16T02:13:59;1.00;;;1.00;;
11986;SDS011;6053;51.382;6.768;2024-02-16T02:16:40;1.70;;;0.90;;
11986;SDS011;6053;51.382;6.768;2024-02-16T02:19:26;1.20;;;1.10;;
11986;SDS011;6053;51.382;6.768;2024-02-16T02:21:58;1.80;;;1.13;;
11986;SDS011;6053;51.382;6.768;2024-02-16T02:24:28;1.33;;;1.20;;
11986;SDS011;6053;51.382;6.768;2024-02-16T02:27:00;0.90;;;0.90;;
11986;SDS011;6053;51.382;6.768;2024-02-16T02:29:29;1.23;;;1.13;;
11986;SDS011;6053;51.382;6.768;2024-02-16T02:32:10;1.63;;;1.20;;
11986;SDS011;6053;51.382;6.768;2024-02-16T02:35:09;1.23;;;1.23;;
11986;SDS011;6053;51.382;6.768;2024-02-16T02:37:40;1.57;;;1.40;;
11986;SDS011;6053;51.382;6.768;2024-02-16T02:40:10;1.30;;;1.20;;
11986;SDS011;6053;51.382;6.768;2024-02-16T02:42:39;1.40;;;1.30;;
11986;SDS011;6053;51.382;6.768;2024-02-16T02:45:08;1.23;;;1.13;;
11986;SDS011;6053;51.382;6.768;2024-02-16T02:47:37;1.30;;;1.20;;
11986;SDS011;6053;51.382;6.768;2024-02-16T02:50:14;1.15;;;1.15;;
11986;SDS011;6053;51.382;6.768;2024-02-16T02:52:49;1.08;;;1.08;;
11986;SDS011;6053;51.382;6.768;2024-02-16T02:55:26;1.30;;;1.20;;
11986;SDS011;6053;51.382;6.768;2024-02-16T02:57:57;2.67;;;1.38;;
11986;SDS011;6053;51.382;6.768;2024-02-16T03:00:32;1.10;;;1.10;;
11986;SDS011;6053;51.382;6.768;2024-02-16T03:03:01;1.50;;;1.40;;
11986;SDS011;6053;51.382;6.768;2024-02-16T03:05:30;1.20;;;1.20;;
11986;SDS011;6053;51.382;6.768;2024-02-16T03:07:58;2.50;;;1.23;;
11986;SDS011;6053;51.382;6.768;2024-02-16T03:10:33;1.85;;;1.30;;
11986;SDS011;6053;51.382;6.768;2024-02-16T03:13:03;1.40;;;1.30;;
11986;SDS011;6053;51.382;6.768;2024-02-16T03:15:36;1.48;;;1.30;;
11986;SDS011;6053;51.382;6.768;2024-02-16T03:18:05;1.20;;;1.20;;
11986;SDS011;6053;51.382;6.768;2024-02-16T03:20:35;1.55;;;1.15;;
11986;SDS011;6053;51.382;6.768;2024-02-16T03:23:15;1.15;;;1.15;;
11986;SDS011;6053;51.382;6.768;2024-02-16T03:25:48;1.30;;;1.20;;
11986;SDS011;6053;51.382;6.768;2024-02-16T03:28:16;1.37;;;1.27;;
11986;SDS011;6053;51.382;6.768;2024-02-16T03:31:01;1.55;;;1.40;;
11986;SDS011;6053;51.382;6.768;2024-02-16T03:33:31;1.30;;;1.13;;
11986;SDS011;6053;51.382;6.768;2024-02-16T03:35:59;1.40;;;1.27;;
11986;SDS011;6053;51.382;6.768;2024-02-16T03:38:27;2.25;;;1.40;;
11986;SDS011;6053;51.382;6.768;2024-02-16T03:40:59;1.73;;;1.33;;
11986;SDS011;6053;51.382;6.768;2024-02-16T03:43:28;1.48;;;1.38;;
11986;SDS011;6053;51.382;6.768;2024-02-16T03:45:56;2.70;;;1.40;;
11986;SDS011;6053;51.382;6.768;2024-02-16T03:51:22;1.33;;;1.27;;
11986;SDS011;6053;51.382;6.768;2024-02-16T03:53:56;1.30;;;1.20;;
11986;SDS011;6053;51.382;6.768;2024-02-16T03:56:33;1.27;;;1.17;;
11986;SDS011;6053;51.382;6.768;2024-02-16T03:59:01;1.15;;;1.05;;
11986;SDS011;6053;51.382;6.768;2024-02-16T04:01:35;3.10;;;1.40;;
11986;SDS011;6053;51.382;6.768;2024-02-16T04:04:03;1.40;;;1.30;;
11986;SDS011;6053;51.382;6.768;2024-02-16T04:06:32;2.22;;;1.40;;
11986;SDS011;6053;51.382;6.768;2024-02-16T04:09:00;2.00;;;1.30;;
11986;SDS011;6053;51.382;6.768;2024-02-16T04:11:32;1.33;;;1.13;;
11986;SDS011;6053;51.382;6.768;2024-02-16T04:14:01;1.73;;;1.15;;
11986;SDS011;6053;51.382;6.768;2024-02-16T04:16:34;1.85;;;1.23;;
11986;SDS011;6053;51.382;6.768;2024-02-16T04:19:06;1.30;;;1.20;;
11986;SDS011;6053;51.382;6.768;2024-02-16T04:21:37;1.30;;;1.20;;
11986;SDS011;6053;51.382;6.768;2024-02-16T04:24:06;1.48;;;1.38;;
11986;SDS011;6053;51.382;6.768;2024-02-16T04:26:36;1.23;;;1.13;;
11986;SDS011;6053;51.382;6.768;2024-02-16T04:29:08;1.37;;;1.30;;
11986;SDS011;6053;51.382;6.768;2024-02-16T04:31:36;1.75;;;1.50;;
11986;SDS011;6053;51.382;6.768;2024-02-16T04:34:14;1.40;;;1.30;;
11986;SDS011;6053;51.382;6.768;2024-02-16T04:36:45;1.50;;;1.40;;
11986;SDS011;6053;51.382;6.768;2024-02-16T04:39:32;1.90;;;1.30;;
11986;SDS011;6053;51.382;6.768;2024-02-16T04:42:01;1.40;;;1.30;;
11986;SDS011;6053;51.382;6.768;2024-02-16T04:44:30;1.60;;;1.50;;
11986;SDS011;6053;51.382;6.768;2024-02-16T04:47:08;2.08;;;1.50;;
11986;SDS011;6053;51.382;6.768;2024-02-16T04:49:37;1.35;;;1.30;;
11986;SDS011;6053;51.382;6.768;2024-02-16T04:52:11;1.52;;;1.50;;
11986;SDS011;6053;51.382;6.768;2024-02-16T04:54:39;1.20;;;1.20;;
11986;SDS011;6053;51.382;6.768;2024-02-16T04:57:12;1.63;;;1.30;;
11986;SDS011;6053;51.382;6.768;2024-02-16T04:59:46;1.90;;;1.35;;
11986;SDS011;6053;51.382;6.768;2024-02-16T05:02:14;1.75;;;1.50;;
11986;SDS011;6053;51.382;6.768;2024-02-16T05:04:42;1.60;;;1.50;;
11986;SDS011;6053;51.382;6.768;2024-02-16T05:07:11;1.10;;;1.10;;
11986;SDS011;6053;51.382;6.768;2024-02-16T05:09:39;2.03;;;1.50;;
11986;SDS011;6053;51.382;6.768;2024-02-16T05:12:09;1.40;;;1.20;;
11986;SDS011;6053;51.382;6.768;2024-02-16T05:14:39;2.25;;;1.30;;
11986;SDS011;6053;51.382;6.768;2024-02-16T05:17:07;1.50;;;1.40;;
11986;SDS011;6053;51.382;6.768;2024-02-16T05:19:39;1.80;;;1.60;;
11986;SDS011;6053;51.382;6.768;2024-02-16T05:22:07;1.50;;;1.40;;
11986;SDS011;6053;51.382;6.768;2024-02-16T05:24:36;2.20;;;1.40;;
11986;SDS011;6053;51.382;6.768;2024-02-16T05:27:07;2.63;;;1.50;;
11986;SDS011;6053;51.382;6.768;2024-02-16T05:29:47;1.10;;;1.10;;
11986;SDS011;6053;51.382;6.768;2024-02-16T05:32:19;2.78;;;1.45;;
11986;SDS011;6053;51.382;6.768;2024-02-16T05:34:48;1.60;;;1.50;;
11986;SDS011;6053;51.382;6.768;2024-02-16T05:37:22;1.75;;;1.58;;
11986;SDS011;6053;51.382;6.768;2024-02-16T05:39:53;1.60;;;1.30;;
11986;SDS011;6053;51.382;6.768;2024-02-16T05:42:35;1.20;;;1.20;;
11986;SDS011;6053;51.382;6.768;2024-02-16T05:45:08;1.50;;;1.40;;
11986;SDS011;6053;51.382;6.768;2024-02-16T05:47:37;1.60;;;1.25;;
11986;SDS011;6053;51.382;6.768;2024-02-16T05:50:06;2.03;;;1.67;;
11986;SDS011;6053;51.382;6.768;2024-02-16T05:52:38;1.50;;;1.20;;
11986;SDS011;6053;51.382;6.768;2024-02-16T05:55:10;3.00;;;1.40;;
11986;SDS011;6053;51.382;6.768;2024-02-16T05:57:53;1.70;;;1.50;;
11986;SDS011;6053;51.382;6.768;2024-02-16T06:00:31;1.30;;;1.20;;
11986;SDS011;6053;51.382;6.768;2024-02-16T06:03:01;1.73;;;1.30;;
11986;SDS011;6053;51.382;6.768;2024-02-16T06:05:30;1.38;;;1.38;;
11986;SDS011;6053;51.382;6.768;2024-02-16T06:08:00;1.55;;;1.45;;
11986;SDS011;6053;51.382;6.768;2024-02-16T06:10:28;1.87;;;1.37;;
11986;SDS011;6053;51.382;6.768;2024-02-16T06:12:57;2.10;;;1.53;;
11986;SDS011;6053;51.382;6.768;2024-02-16T06:15:27;3.42;;;1.50;;
11986;SDS011;6053;51.382;6.768;2024-02-16T06:17:59;1.42;;;1.33;;
11986;SDS011;6053;51.382;6.768;2024-02-16T06:20:28;2.03;;;1.67;;
11986;SDS011;6053;51.382;6.768;2024-02-16T06:23:00;1.95;;;1.35;;
11986;SDS011;6053;51.382;6.768;2024-02-16T06:25:28;3.50;;;1.35;;
11986;SDS011;6053;51.382;6.768;2024-02-16T06:27:57;1.50;;;1.40;;
11986;SDS011;6053;51.382;6.768;2024-02-16T06:30:30;1.95;;;1.45;;
11986;SDS011;6053;51.382;6.768;2024-02-16T06:33:00;1.92;;;1.23;;
11986;SDS011;6053;51.382;6.768;2024-02-16T06:35:32;1.60;;;1.50;;
11986;SDS011;6053;51.382;6.768;2024-02-16T06:38:03;1.90;;;1.27;;
11986;SDS011;6053;51.382;6.768;2024-02-16T06:40:31;1.42;;;1.30;;
11986;SDS011;6053;51.382;6.768;2024-02-16T06:43:00;2.17;;;1.55;;
11986;SDS011;6053;51.382;6.768;2024-02-16T06:45:29;1.50;;;1.40;;
11986;SDS011;6053;51.382;6.768;2024-02-16T06:48:00;1.33;;;1.30;;
11986;SDS011;6053;51.382;6.768;2024-02-16T06:50:29;1.38;;;1.27;;
11986;SDS011;6053;51.382;6.768;2024-02-16T06:52:57;1.63;;;1.23;;
11986;SDS011;6053;51.382;6.768;2024-02-16T06:55:28;1.50;;;1.40;;
11986;SDS011;6053;51.382;6.768;2024-02-16T06:57:56;1.45;;;1.30;;
11986;SDS011;6053;51.382;6.768;2024-02-16T07:00:32;1.50;;;1.40;;
11986;SDS011;6053;51.382;6.768;2024-02-16T07:03:02;2.05;;;1.60;;
11986;SDS011;6053;51.382;6.768;2024-02-16T07:05:30;1.65;;;1.55;;
11986;SDS011;6053;51.382;6.768;2024-02-16T07:08:02;1.40;;;1.30;;
11986;SDS011;6053;51.382;6.768;2024-02-16T07:10:33;1.50;;;1.40;;
11986;SDS011;6053;51.382;6.768;2024-02-16T07:13:04;1.38;;;1.20;;
11986;SDS011;6053;51.382;6.768;2024-02-16T07:15:34;1.77;;;1.67;;
11986;SDS011;6053;51.382;6.768;2024-02-16T07:18:05;3.90;;;1.60;;
11986;SDS011;6053;51.382;6.768;2024-02-16T07:20:34;2.00;;;1.58;;
11986;SDS011;6053;51.382;6.768;2024-02-16T07:23:02;2.25;;;1.63;;
11986;SDS011;6053;51.382;6.768;2024-02-16T07:25:31;2.88;;;1.55;;
11986;SDS011;6053;51.382;6.768;2024-02-16T07:27:59;1.67;;;1.58;;
11986;SDS011;6053;51.382;6.768;2024-02-16T07:30:28;2.53;;;1.73;;
11986;SDS011;6053;51.382;6.768;2024-02-16T07:33:15;1.17;;;1.08;;
11986;SDS011;6053;51.382;6.768;2024-02-16T07:35:44;1.80;;;1.70;;
11986;SDS011;6053;51.382;6.768;2024-02-16T07:38:12;1.92;;;1.80;;
11986;SDS011;6053;51.382;6.768;2024-02-16T07:40:46;1.80;;;1.70;;
11986;SDS011;6053;51.382;6.768;2024-02-16T07:43:17;1.73;;;1.17;;
11986;SDS011;6053;51.382;6.768;2024-02-16T07:45:48;2.55;;;1.77;;
11986;SDS011;6053;51.382;6.768;2024-02-16T07:48:22;1.77;;;1.50;;
11986;SDS011;6053;51.382;6.768;2024-02-16T07:50:50;2.08;;;1.80;;
11986;SDS011;6053;51.382;6.768;2024-02-16T07:53:19;2.67;;;1.75;;
11986;SDS011;6053;51.382;6.768;2024-02-16T07:55:47;1.27;;;1.27;;
11986;SDS011;6053;51.382;6.768;2024-02-16T07:58:18;1.70;;;1.60;;
11986;SDS011;6053;51.382;6.768;2024-02-16T08:00:47;1.70;;;1.60;;
11986;SDS011;6053;51.382;6.768;2024-02-16T08:03:15;3.05;;;1.40;;
11986;SDS011;6053;51.382;6.768;2024-02-16T08:05:57;1.60;;;1.50;;
11986;SDS011;6053;51.382;6.768;2024-02-16T08:08:25;1.63;;;1.52;;
11986;SDS011;6053;51.382;6.768;2024-02-16T08:10:54;1.98;;;1.60;;
11986;SDS011;6053;51.382;6.768;2024-02-16T08:13:25;1.90;;;1.60;;
11986;SDS011;6053;51.382;6.768;2024-02-16T08:15:53;1.80;;;1.70;;
11986;SDS011;6053;51.382;6.768;2024-02-16T08:18:24;1.73;;;1.52;;
11986;SDS011;6053;51.382;6.768;2024-02-16T08:20:57;4.07;;;1.58;;
11986;SDS011;6053;51.382;6.768;2024-02-16T08:23:26;1.53;;;1.43;;
11986;SDS011;6053;51.382;6.768;2024-02-16T08:25:54;1.42;;;1.40;;
11986;SDS011;6053;51.382;6.768;2024-02-16T08:28:27;1.53;;;1.27;;
11986;SDS011;6053;51.382;6.768;2024-02-16T08:30:58;2.03;;;1.65;;
11986;SDS011;6053;51.382;6.768;2024-02-16T08:33:28;2.00;;;1.67;;
11986;SDS011;6053;51.382;6.768;2024-02-16T08:35:59;1.92;;;1.25;;
11986;SDS011;6053;51.382;6.768;2024-02-16T08:38:28;1.58;;;1.45;;
11986;SDS011;6053;51.382;6.768;2024-02-16T08:40:56;2.72;;;1.60;;
11986;SDS011;6053;51.382;6.768;2024-02-16T08:43:27;3.00;;;1.60;;
11986;SDS011;6053;51.382;6.768;2024-02-16T08:45:59;2.15;;;1.48;;
11986;SDS011;6053;51.382;6.768;2024-02-16T08:48:28;3.45;;;1.60;;
11986;SDS011;6053;51.382;6.768;2024-02-16T08:50:57;2.00;;;1.50;;
11986;SDS011;6053;51.382;6.768;2024-02-16T08:53:28;2.93;;;1.67;;
11986;SDS011;6053;51.382;6.768;2024-02-16T08:55:57;1.80;;;1.33;;
11986;SDS011;6053;51.382;6.768;2024-02-16T08:58:28;1.20;;;1.20;;
11986;SDS011;6053;51.382;6.768;2024-02-16T09:00:56;2.60;;;1.70;;
11986;SDS011;6053;51.382;6.768;2024-02-16T09:03:35;1.80;;;1.40;;
11986;SDS011;6053;51.382;6.768;2024-02-16T09:06:06;2.27;;;1.60;;
11986;SDS011;6053;51.382;6.768;2024-02-16T09:08:42;2.28;;;1.60;;
11986;SDS011;6053;51.382;6.768;2024-02-16T09:11:19;3.10;;;1.90;;
11986;SDS011;6053;51.382;6.768;2024-02-16T09:13:51;1.83;;;1.60;;
11986;SDS011;6053;51.382;6.768;2024-02-16T09:16:19;2.08;;;1.60;;
11986;SDS011;6053;51.382;6.768;2024-02-16T09:18:52;1.40;;;1.30;;
11986;SDS011;6053;51.382;6.768;2024-02-16T09:21:21;3.28;;;1.70;;
11986;SDS011;6053;51.382;6.768;2024-02-16T09:23:53;2.50;;;1.70;;
11986;SDS011;6053;51.382;6.768;2024-02-16T09:26:39;2.10;;;1.88;;
11986;SDS011;6053;51.382;6.768;2024-02-16T09:29:08;1.73;;;1.55;;
11986;SDS011;6053;51.382;6.768;2024-02-16T09:31:50;2.05;;;1.70;;
11986;SDS011;6053;51.382;6.768;2024-02-16T09:34:23;3.30;;;2.03;;
11986;SDS011;6053;51.382;6.768;2024-02-16T09:36:52;2.10;;;1.75;;
11986;SDS011;6053;51.382;6.768;2024-02-16T09:39:23;1.97;;;1.50;;
11986;SDS011;6053;51.382;6.768;2024-02-16T09:41:53;2.10;;;1.80;;
11986;SDS011;6053;51.382;6.768;2024-02-16T09:44:22;1.83;;;1.60;;
11986;SDS011;6053;51.382;6.768;2024-02-16T09:47:00;2.00;;;1.63;;
11986;SDS011;6053;51.382;6.768;2024-02-16T09:49:32;2.63;;;1.60;;
11986;SDS011;6053;51.382;6.768;2024-02-16T09:52:09;3.13;;;1.73;;
11986;SDS011;6053;51.382;6.768;2024-02-16T09:54:38;1.83;;;1.30;;
11986;SDS011;6053;51.382;6.768;2024-02-16T09:57:10;1.60;;;1.50;;
11986;SDS011;6053;51.382;6.768;2024-02-16T09:59:50;2.08;;;1.67;;
11986;SDS011;6053;51.382;6.768;2024-02-16T10:02:18;1.60;;;1.50;;
11986;SDS011;6053;51.382;6.768;2024-02-16T10:08:10;2.50;;;1.58;;
11986;SDS011;6053;51.382;6.768;2024-02-16T10:10:39;1.77;;;1.42;;
11986;SDS011;6053;51.382;6.768;2024-02-16T10:13:08;1.95;;;1.65;;
11986;SDS011;6053;51.382;6.768;2024-02-16T10:15:37;1.30;;;1.20;;
11986;SDS011;6053;51.382;6.768;2024-02-16T10:18:06;2.88;;;1.85;;
11986;SDS011;6053;51.382;6.768;2024-02-16T10:20:37;4.10;;;1.80;;
11986;SDS011;6053;51.382;6.768;2024-02-16T10:23:11;2.13;;;1.50;;
11986;SDS011;6053;51.382;6.768;2024-02-16T10:25:39;3.85;;;1.70;;
11986;SDS011;6053;51.382;6.768;2024-02-16T10:28:15;2.55;;;1.65;;
11986;SDS011;6053;51.382;6.768;2024-02-16T10:30:57;2.10;;;1.58;;
11986;SDS011;6053;51.382;6.768;2024-02-16T10:33:33;2.17;;;1.63;;
11986;SDS011;6053;51.382;6.768;2024-02-16T10:36:05;3.38;;;1.85;;
11986;SDS011;6053;51.382;6.768;2024-02-16T10:38:34;4.88;;;1.88;;
11986;SDS011;6053;51.382;6.768;2024-02-16T10:41:04;2.03;;;1.63;;
11986;SDS011;6053;51.382;6.768;2024-02-16T10:43:35;2.08;;;1.35;;
11986;SDS011;6053;51.382;6.768;2024-02-16T10:46:03;2.13;;;1.50;;
11986;SDS011;6053;51.382;6.768;2024-02-16T10:48:32;3.10;;;1.77;;
11986;SDS011;6053;51.382;6.768;2024-02-16T10:51:09;1.65;;;1.55;;
11986;SDS011;6053;51.382;6.768;2024-02-16T10:53:42;1.63;;;1.38;;
11986;SDS011;6053;51.382;6.768;2024-02-16T10:56:12;1.83;;;1.42;;
11986;SDS011;6053;51.382;6.768;2024-02-16T10:58:41;2.60;;;1.50;;
11986;SDS011;6053;51.382;6.768;2024-02-16T11:01:09;5.40;;;1.80;;
11986;SDS011;6053;51.382;6.768;2024-02-16T11:03:42;2.85;;;1.70;;
11986;SDS011;6053;51.382;6.768;2024-02-16T11:06:15;2.30;;;1.30;;
11986;SDS011;6053;51.382;6.768;2024-02-16T11:08:48;2.05;;;1.38;;
11986;SDS011;6053;51.382;6.768;2024-02-16T11:11:30;2.30;;;1.30;;
11986;SDS011;6053;51.382;6.768;2024-02-16T11:14:00;3.20;;;1.55;;
11986;SDS011;6053;51.382;6.768;2024-02-16T11:16:30;2.70;;;1.80;;
11986;SDS011;6053;51.382;6.768;2024-02-16T11:18:58;3.47;;;1.90;;
11986;SDS011;6053;51.382;6.768;2024-02-16T11:21:31;3.70;;;1.80;;
11986;SDS011;6053;51.382;6.768;2024-02-16T11:24:03;1.67;;;1.58;;
11986;SDS011;6053;51.382;6.768;2024-02-16T11:26:41;3.53;;;1.67;;
11986;SDS011;6053;51.382;6.768;2024-02-16T11:29:15;1.42;;;1.33;;
11986;SDS011;6053;51.382;6.768;2024-02-16T11:31:46;1.88;;;1.65;;
11986;SDS011;6053;51.382;6.768;2024-02-16T11:34:24;2.13;;;1.40;;
11986;SDS011;6053;51.382;6.768;2024-02-16T11:36:58;2.25;;;1.50;;
11986;SDS011;6053;51.382;6.768;2024-02-16T11:39:39;1.53;;;1.23;;
11986;SDS011;6053;51.382;6.768;2024-02-16T11:42:12;2.38;;;1.98;;
11986;SDS011;6053;51.382;6.768;2024-02-16T11:44:51;2.53;;;1.80;;
11986;SDS011;6053;51.382;6.768;2024-02-16T11:47:32;3.38;;;1.88;;
11986;SDS011;6053;51.382;6.768;2024-02-16T11:50:04;3.70;;;1.85;;
11986;SDS011;6053;51.382;6.768;2024-02-16T11:52:42;4.07;;;1.80;;
11986;SDS011;6053;51.382;6.768;2024-02-16T11:55:13;3.42;;;1.85;;
11986;SDS011;6053;51.382;6.768;2024-02-16T11:57:45;3.03;;;2.07;;
11986;SDS011;6053;51.382;6.768;2024-02-16T12:00:22;1.77;;;1.25;;
11986;SDS011;6053;51.382;6.768;2024-02-16T12:03:00;2.95;;;1.70;;
11986;SDS011;6053;51.382;6.768;2024-02-16T12:05:29;3.80;;;1.88;;
11986;SDS011;6053;51.382;6.768;2024-02-16T12:08:01;5.93;;;2.10;;
11986;SDS011;6053;51.382;6.768;2024-02-16T12:10:30;5.95;;;2.13;;
11986;SDS011;6053;51.382;6.768;2024-02-16T12:12:58;3.13;;;1.95;;
11986;SDS011;6053;51.382;6.768;2024-02-16T12:15:40;3.95;;;1.90;;
11986;SDS011;6053;51.382;6.768;2024-02-16T12:18:08;5.63;;;2.50;;
11986;SDS011;6053;51.382;6.768;2024-02-16T12:20:58;4.53;;;2.45;;
11986;SDS011;6053;51.382;6.768;2024-02-16T12:23:29;4.32;;;2.13;;
11986;SDS011;6053;51.382;6.768;2024-02-16T12:25:58;7.82;;;2.38;;
11986;SDS011;6053;51.382;6.768;2024-02-16T12:28:36;3.50;;;2.10;;
11986;SDS011;6053;51.382;6.768;2024-02-16T12:31:04;4.15;;;2.42;;
11986;SDS011;6053;51.382;6.768;2024-02-16T12:33:36;6.10;;;2.83;;
11986;SDS011;6053;51.382;6.768;2024-02-16T12:36:05;4.38;;;2.45;;
11986;SDS011;6053;51.382;6.768;2024-02-16T12:38:40;5.07;;;2.35;;
11986;SDS011;6053;51.382;6.768;2024-02-16T12:41:08;3.15;;;2.40;;
11986;SDS011;6053;51.382;6.768;2024-02-16T12:43:43;4.68;;;2.30;;
11986;SDS011;6053;51.382;6.768;2024-02-16T12:46:31;3.93;;;1.80;;
11986;SDS011;6053;51.382;6.768;2024-02-16T12:49:00;3.92;;;2.50;;
11986;SDS011;6053;51.382;6.768;2024-02-16T12:51:29;3.53;;;2.33;;
11986;SDS011;6053;51.382;6.768;2024-02-16T12:53:59;6.70;;;2.70;;
11986;SDS011;6053;51.382;6.768;2024-02-16T12:56:30;4.10;;;2.60;;
11986;SDS011;6053;51.382;6.768;2024-02-16T12:59:01;3.05;;;2.60;;
11986;SDS011;6053;51.382;6.768;2024-02-16T13:01:29;1.30;;;1.25;;
11986;SDS011;6053;51.382;6.768;2024-02-16T13:04:01;3.28;;;2.22;;
11986;SDS011;6053;51.382;6.768;2024-02-16T13:06:35;5.63;;;2.65;;
11986;SDS011;6053;51.382;6.768;2024-02-16T13:09:05;2.00;;;1.50;;
11986;SDS011;6053;51.382;6.768;2024-02-16T13:11:35;3.47;;;2.22;;
11986;SDS011;6053;51.382;6.768;2024-02-16T13:14:03;5.78;;;2.53;;
11986;SDS011;6053;51.382;6.768;2024-02-16T13:16:32;4.45;;;2.40;;
11986;SDS011;6053;51.382;6.768;2024-02-16T13:19:00;3.00;;;2.08;;
11986;SDS011;6053;51.382;6.768;2024-02-16T13:21:29;5.40;;;2.80;;
11986;SDS011;6053;51.382;6.768;2024-02-16T13:23:58;2.60;;;2.30;;
11986;SDS011;6053;51.382;6.768;2024-02-16T13:26:34;4.03;;;2.25;;
11986;SDS011;6053;51.382;6.768;2024-02-16T13:29:02;5.03;;;2.22;;
11986;SDS011;6053;51.382;6.768;2024-02-16T13:31:32;2.92;;;2.03;;
11986;SDS011;6053;51.382;6.768;2024-02-16T13:34:03;3.63;;;2.00;;
11986;SDS011;6053;51.382;6.768;2024-02-16T13:36:34;2.88;;;2.25;;
11986;SDS011;6053;51.382;6.768;2024-02-16T13:39:11;5.63;;;2.70;;
11986;SDS011;6053;51.382;6.768;2024-02-16T13:41:42;3.10;;;2.40;;
11986;SDS011;6053;51.382;6.768;2024-02-16T13:44:12;2.38;;;2.08;;
11986;SDS011;6053;51.382;6.768;2024-02-16T13:46:47;2.30;;;1.70;;
11986;SDS011;6053;51.382;6.768;2024-02-16T13:49:16;2.70;;;2.10;;
11986;SDS011;6053;51.382;6.768;2024-02-16T13:51:44;2.38;;;1.73;;
11986;SDS011;6053;51.382;6.768;2024-02-16T13:54:19;5.72;;;2.45;;
11986;SDS011;6053;51.382;6.768;2024-02-16T13:56:54;1.83;;;1.73;;
11986;SDS011;6053;51.382;6.768;2024-02-16T13:59:23;1.48;;;1.38;;
11986;SDS011;6053;51.382;6.768;2024-02-16T14:01:51;5.93;;;2.78;;
11986;SDS011;6053;51.382;6.768;2024-02-16T14:04:20;1.20;;;1.17;;
11986;SDS011;6053;51.382;6.768;2024-02-16T14:06:50;3.20;;;2.15;;
11986;SDS011;6053;51.382;6.768;2024-02-16T14:09:31;1.57;;;1.47;;
11986;SDS011;6053;51.382;6.768;2024-02-16T14:12:01;3.30;;;2.23;;
11986;SDS011;6053;51.382;6.768;2024-02-16T14:14:30;3.20;;;2.22;;
11986;SDS011;6053;51.382;6.768;2024-02-16T14:17:04;3.97;;;2.30;;
11986;SDS011;6053;51.382;6.768;2024-02-16T14:19:32;6.30;;;3.58;;
11986;SDS011;6053;51.382;6.768;2024-02-16T14:22:04;5.82;;;3.45;;
11986;SDS011;6053;51.382;6.768;2024-02-16T14:24:33;2.45;;;2.25;;
11986;SDS011;6053;51.382;6.768;2024-02-16T14:27:03;4.63;;;2.93;;
11986;SDS011;6053;51.382;6.768;2024-02-16T14:29:32;5.03;;;2.80;;
11986;SDS011;6053;51.382;6.768;2024-02-16T14:32:00;3.55;;;2.35;;
11986;SDS011;6053;51.382;6.768;2024-02-16T14:34:32;5.40;;;2.83;;
11986;SDS011;6053;51.382;6.768;2024-02-16T14:37:02;1.93;;;1.83;;
11986;SDS011;6053;51.382;6.768;2024-02-16T14:39:33;2.10;;;1.65;;
11986;SDS011;6053;51.382;6.768;2024-02-16T14:42:03;1.47;;;1.40;;
11986;SDS011;6053;51.382;6.768;2024-02-16T14:44:32;1.00;;;1.00;;
11986;SDS011;6053;51.382;6.768;2024-02-16T14:47:00;2.00;;;1.90;;
11986;SDS011;6053;51.382;6.768;2024-02-16T14:49:29;2.03;;;1.75;;
11986;SDS011;6053;51.382;6.768;2024-02-16T14:52:05;1.92;;;1.83;;
11986;SDS011;6053;51.382;6.768;2024-02-16T14:54:38;1.02;;;1.02;;
11986;SDS011;6053;51.382;6.768;2024-02-16T14:57:18;1.10;;;1.10;;
11986;SDS011;6053;51.382;6.768;2024-02-16T14:59:52;2.05;;;1.95;;
11986;SDS011;6053;51.382;6.768;2024-02-16T15:02:23;1.80;;;1.70;;
11986;SDS011;6053;51.382;6.768;2024-02-16T15:04:54;1.67;;;1.58;;
11986;SDS011;6053;51.382;6.768;2024-02-16T15:07:26;1.20;;;1.17;;
11986;SDS011;6053;51.382;6.768;2024-02-16T15:09:54;1.25;;;1.25;;
11986;SDS011;6053;51.382;6.768;2024-02-16T15:12:30;0.80;;;0.80;;
11986;SDS011;6053;51.382;6.768;2024-02-16T15:14:58;0.90;;;0.90;;
11986;SDS011;6053;51.382;6.768;2024-02-16T15:17:27;1.67;;;1.58;;
11986;SDS011;6053;51.382;6.768;2024-02-16T15:20:00;1.05;;;1.05;;
11986;SDS011;6053;51.382;6.768;2024-02-16T15:22:30;1.10;;;1.00;;
11986;SDS011;6053;51.382;6.768;2024-02-16T15:25:13;1.70;;;1.60;;
11986;SDS011;6053;51.382;6.768;2024-02-16T15:27:46;1.77;;;1.20;;
11986;SDS011;6053;51.382;6.768;2024-02-16T15:30:23;1.35;;;1.35;;
11986;SDS011;6053;51.382;6.768;2024-02-16T15:32:58;1.00;;;1.00;;